createdAt,value
2024-03-05T00:00:29.302Z,70.83
2024-03-05T00:01:32.478Z,70.82
2024-03-05T00:02:37.484Z,70.86
2024-03-05T00:03:40.121Z,70.93
2024-03-05T00:04:42.322Z,70.90
2024-03-05T00:05:44.308Z,70.90
2024-03-05T00:06:46.501Z,70.97
2024-03-05T00:07:49.236Z,70.96
2024-03-05T00:08:51.454Z,70.98
2024-03-05T00:09:53.501Z,70.97
2024-03-05T00:10:55.720Z,71.01
2024-03-05T00:11:58.285Z,71.04
2024-03-05T00:13:00.664Z,71.05
2024-03-05T00:14:04.088Z,70.93
2024-03-05T00:15:07.675Z,70.95
2024-03-05T00:16:09.995Z,70.97
2024-03-05T00:17:12.266Z,70.94
2024-03-05T00:18:14.414Z,70.91
2024-03-05T00:19:16.555Z,70.84
2024-03-05T00:20:18.864Z,70.75
2024-03-05T00:21:20.832Z,70.61
2024-03-05T00:22:23.081Z,70.52
2024-03-05T00:23:25.206Z,70.50
2024-03-05T00:24:27.450Z,70.47
2024-03-05T00:25:32.030Z,70.48
2024-03-05T00:26:34.524Z,70.47
2024-03-05T00:27:37.025Z,70.43
2024-03-05T00:28:39.156Z,70.60
2024-03-05T00:29:41.832Z,70.65
2024-03-05T00:30:44.331Z,70.63
2024-03-05T00:31:46.564Z,70.73
2024-03-05T00:32:48.614Z,70.82
2024-03-05T00:33:50.912Z,70.82
2024-03-05T00:34:53.461Z,70.86
2024-03-05T00:35:55.767Z,70.91
2024-03-05T00:36:58.181Z,70.91
2024-03-05T00:38:00.216Z,70.94
2024-03-05T00:39:02.886Z,71.00
2024-03-05T00:40:06.111Z,71.05
2024-03-05T00:41:08.735Z,71.12
2024-03-05T00:42:10.876Z,71.22
2024-03-05T00:43:13.186Z,71.24
2024-03-05T00:44:15.416Z,71.29
2024-03-05T00:45:17.908Z,71.31
2024-03-05T00:46:21.140Z,71.31
2024-03-05T00:47:24.342Z,71.24
2024-03-05T00:48:27.103Z,71.28
2024-03-05T00:49:29.263Z,71.28
2024-03-05T00:50:31.429Z,71.26
2024-03-05T00:51:33.510Z,71.36
2024-03-05T00:52:36.032Z,71.30
2024-03-05T00:53:38.214Z,71.32
2024-03-05T00:54:40.365Z,71.31
2024-03-05T00:55:42.623Z,71.32
2024-03-05T00:56:45.282Z,71.40
2024-03-05T00:57:47.493Z,71.41
2024-03-05T00:58:49.716Z,71.46
2024-03-05T00:59:52.338Z,71.46
2024-03-05T01:00:55.088Z,71.51
2024-03-05T01:01:57.404Z,71.52
2024-03-05T01:03:00.417Z,71.57
2024-03-05T01:04:02.653Z,71.60
2024-03-05T01:05:05.516Z,71.55
2024-03-05T01:06:07.993Z,71.56
2024-03-05T01:07:10.086Z,71.53
2024-03-05T01:08:12.149Z,71.45
2024-03-05T01:09:14.162Z,71.43
2024-03-05T01:10:16.554Z,71.49
2024-03-05T01:11:18.954Z,71.51
2024-03-05T01:12:21.106Z,71.46
2024-03-05T01:13:23.301Z,71.41
2024-03-05T01:14:25.586Z,71.48
2024-03-05T01:15:27.844Z,71.50
2024-03-05T01:16:30.262Z,71.58
2024-03-05T01:17:33.661Z,71.62
2024-03-05T01:18:35.695Z,71.57
2024-03-05T01:19:37.947Z,71.50
2024-03-05T01:20:40.717Z,71.42
2024-03-05T01:21:43.057Z,71.41
2024-03-05T01:22:46.312Z,71.45
2024-03-05T01:23:49.123Z,71.42
2024-03-05T01:24:51.233Z,71.49
2024-03-05T01:25:53.664Z,71.57
2024-03-05T01:26:56.010Z,71.65
2024-03-05T01:27:58.585Z,71.77
2024-03-05T01:29:00.819Z,71.88
2024-03-05T01:30:04.622Z,71.91
2024-03-05T01:31:08.188Z,71.97
2024-03-05T01:32:10.346Z,71.99
2024-03-05T01:33:12.649Z,71.97
2024-03-05T01:34:15.808Z,71.98
2024-03-05T01:35:18.136Z,72.04
2024-03-05T01:36:20.616Z,71.99
2024-03-05T01:37:23.247Z,71.98
2024-03-05T01:38:25.839Z,71.96
2024-03-05T01:39:28.764Z,71.97
2024-03-05T01:40:31.558Z,71.99
2024-03-05T01:41:34.193Z,72.08
2024-03-05T01:42:36.330Z,72.07
2024-03-05T01:43:38.600Z,72.06
2024-03-05T01:44:40.701Z,72.03
2024-03-05T01:45:42.982Z,72.05
2024-03-05T01:46:50.979Z,72.04
2024-03-05T01:47:53.499Z,72.04
2024-03-05T01:48:56.267Z,72.06
2024-03-05T01:50:02.029Z,72.05
2024-03-05T01:51:05.019Z,72.03
2024-03-05T01:52:07.485Z,72.08
2024-03-05T01:53:12.422Z,72.05
2024-03-05T01:54:16.576Z,72.03
2024-03-05T01:55:23.437Z,72.02
2024-03-05T01:56:26.044Z,72.08
2024-03-05T01:57:28.953Z,72.06
2024-03-05T01:58:31.809Z,72.07
2024-03-05T01:59:35.008Z,72.08
2024-03-05T02:00:37.510Z,72.07
2024-03-05T02:01:39.753Z,72.05
2024-03-05T02:02:45.282Z,72.07
2024-03-05T02:03:47.719Z,72.04
2024-03-05T02:04:52.778Z,72.02
2024-03-05T02:05:58.613Z,71.96
2024-03-05T02:07:02.087Z,71.91
2024-03-05T02:08:04.890Z,71.86
2024-03-05T02:09:07.241Z,71.84
2024-03-05T02:10:10.629Z,71.87
2024-03-05T02:11:13.622Z,71.92
2024-03-05T02:12:16.493Z,71.94
2024-03-05T02:13:18.843Z,71.91
2024-03-05T02:14:21.405Z,71.84
2024-03-05T02:15:23.614Z,71.86
2024-03-05T02:16:26.348Z,71.86
2024-03-05T02:17:28.971Z,71.87
2024-03-05T02:18:30.973Z,71.78
2024-03-05T02:19:33.069Z,71.75
2024-03-05T02:20:35.720Z,71.75
2024-03-05T02:21:37.858Z,71.79
2024-03-05T02:22:41.046Z,71.84
2024-03-05T02:23:43.054Z,71.82
2024-03-05T02:24:45.444Z,71.86
2024-03-05T02:25:47.978Z,71.94
2024-03-05T02:26:50.829Z,71.97
2024-03-05T02:27:53.205Z,71.97
2024-03-05T02:28:57.729Z,71.97
2024-03-05T02:30:00.882Z,71.97
2024-03-05T02:31:03.430Z,72.01
2024-03-05T02:32:07.971Z,72.03
2024-03-05T02:33:11.111Z,72.03
2024-03-05T02:34:14.360Z,71.95
2024-03-05T02:35:17.092Z,71.98
2024-03-05T02:36:19.326Z,71.95
2024-03-05T02:37:22.014Z,71.99
2024-03-05T02:38:24.619Z,71.99
2024-03-05T02:39:27.300Z,71.99
2024-03-05T02:40:30.053Z,72.05
2024-03-05T02:41:32.214Z,72.07
2024-03-05T02:42:37.160Z,72.13
2024-03-05T02:43:39.504Z,72.16
2024-03-05T02:44:41.694Z,72.23
2024-03-05T02:45:44.000Z,72.30
2024-03-05T02:46:46.210Z,72.34
2024-03-05T02:47:48.594Z,72.45
2024-03-05T02:48:50.766Z,72.49
2024-03-05T02:49:53.122Z,72.46
2024-03-05T02:50:55.418Z,72.48
2024-03-05T02:51:57.813Z,72.51
2024-03-05T02:52:59.927Z,72.48
2024-03-05T02:54:01.994Z,72.54
2024-03-05T02:55:05.330Z,72.52
2024-03-05T02:56:09.079Z,72.56
2024-03-05T02:57:11.915Z,72.57
2024-03-05T02:58:13.924Z,72.59
2024-03-05T02:59:17.667Z,72.60
2024-03-05T03:00:20.653Z,72.67
2024-03-05T03:01:26.382Z,72.71
2024-03-05T08:53:47.249Z,63.58
2024-03-05T08:54:49.363Z,63.29
2024-03-05T08:55:51.403Z,63.55
2024-03-05T08:56:54.801Z,63.94
2024-03-05T08:57:56.945Z,64.42
2024-03-05T08:59:00.447Z,64.23
2024-03-05T09:00:13.851Z,63.86
2024-03-05T09:01:08.637Z,64.60
2024-03-05T09:02:11.133Z,64.66
2024-03-05T09:03:13.966Z,64.58
2024-03-05T09:04:16.767Z,64.28
2024-03-05T09:05:19.179Z,64.00
2024-03-05T09:06:21.377Z,63.77
2024-03-05T09:07:24.346Z,63.66
2024-03-05T09:08:26.856Z,63.62
2024-03-05T09:09:29.031Z,63.55
2024-03-05T09:10:31.474Z,63.55
2024-03-05T09:11:33.638Z,63.53
2024-03-05T09:12:36.306Z,63.47
2024-03-05T09:13:42.968Z,63.52
2024-03-05T09:14:45.483Z,63.58
2024-03-05T09:15:47.586Z,63.49
2024-03-05T09:16:49.970Z,62.90
2024-03-05T09:17:52.431Z,62.82
2024-03-05T09:18:54.671Z,62.55
2024-03-05T09:19:57.054Z,62.55
2024-03-05T09:20:59.291Z,62.33
2024-03-05T09:22:01.217Z,62.13
2024-03-05T09:23:03.882Z,62.15
2024-03-05T09:24:06.677Z,62.03
2024-03-05T09:25:09.570Z,61.84
2024-03-05T09:26:12.341Z,61.97
2024-03-05T09:27:14.886Z,62.55
2024-03-05T09:28:17.344Z,62.68
2024-03-05T09:29:20.601Z,62.67
2024-03-05T09:30:23.406Z,62.24
2024-03-05T09:31:25.697Z,62.00
2024-03-05T09:32:28.375Z,61.61
2024-03-05T09:33:31.713Z,61.01
2024-03-05T09:34:34.628Z,60.96
2024-03-05T09:35:36.738Z,60.67
2024-03-05T09:36:39.463Z,60.27
2024-03-05T09:37:43.176Z,60.60
2024-03-05T09:38:45.573Z,60.97
2024-03-05T09:39:48.369Z,60.81
2024-03-05T09:40:51.730Z,60.75
2024-03-05T09:41:53.995Z,60.24
2024-03-05T09:42:59.915Z,60.31
2024-03-05T09:44:02.181Z,60.52
2024-03-05T09:45:05.869Z,60.33
2024-03-05T09:46:09.376Z,60.51
2024-03-05T09:47:13.747Z,59.74
2024-03-05T09:48:18.622Z,60.13
2024-03-05T09:49:23.387Z,60.23
2024-03-05T09:50:26.180Z,59.81
2024-03-05T09:51:30.038Z,60.32
2024-03-05T09:52:32.838Z,59.98
2024-03-05T09:53:35.584Z,59.73
2024-03-05T09:54:38.426Z,59.52
2024-03-05T09:55:41.493Z,59.56
2024-03-05T09:56:45.696Z,59.21
2024-03-05T09:57:49.151Z,59.40
2024-03-05T09:58:52.190Z,59.30
2024-03-05T09:59:55.450Z,59.51
2024-03-05T10:01:00.728Z,59.22
2024-03-05T10:02:03.357Z,59.38
2024-03-05T10:03:07.264Z,59.48
2024-03-05T10:04:15.268Z,59.12
2024-03-05T10:05:18.603Z,58.93
2024-03-05T10:06:20.995Z,58.55
2024-03-05T10:07:27.513Z,59.00
2024-03-05T10:08:30.348Z,59.05
2024-03-05T10:09:32.502Z,59.15
2024-03-05T10:10:34.987Z,58.36
2024-03-05T10:11:38.186Z,57.81
2024-03-05T10:12:41.230Z,58.13
2024-03-05T10:13:43.697Z,58.48
2024-03-05T10:14:46.329Z,58.46
2024-03-05T10:15:48.662Z,58.42
2024-03-05T10:16:54.847Z,57.78
2024-03-05T10:17:57.217Z,58.49
2024-03-05T10:18:59.549Z,58.69
2024-03-05T10:20:01.976Z,58.59
2024-03-05T10:21:22.606Z,58.35
2024-03-05T10:22:24.800Z,57.51
2024-03-05T10:23:29.199Z,57.88
2024-03-05T10:24:31.569Z,57.52
2024-03-05T10:25:37.032Z,57.82
2024-03-05T10:26:40.134Z,57.75
2024-03-05T10:27:50.099Z,57.90
2024-03-05T10:28:52.864Z,57.71
2024-03-05T10:29:55.234Z,57.85
2024-03-05T10:31:00.898Z,57.73
2024-03-05T10:32:06.748Z,57.62
2024-03-05T10:33:10.370Z,57.25
2024-03-05T10:34:14.775Z,57.30
2024-03-05T10:35:16.966Z,57.76
2024-03-05T10:37:36.931Z,57.26
2024-03-05T10:38:39.997Z,57.96
2024-03-05T10:39:42.953Z,57.79
2024-03-05T10:40:47.275Z,57.87
2024-03-05T10:41:54.152Z,57.10
2024-03-05T10:42:58.699Z,57.87
2024-03-05T10:44:02.256Z,57.64
2024-03-05T10:45:07.801Z,58.12
2024-03-05T10:46:11.628Z,57.55
2024-03-05T10:47:14.352Z,57.25
2024-03-05T10:48:18.068Z,57.03
2024-03-05T10:49:22.215Z,57.47
2024-03-05T10:50:29.858Z,57.30
2024-03-05T10:51:40.309Z,57.49
2024-03-05T10:52:44.065Z,56.97
2024-03-05T10:53:49.493Z,57.08
2024-03-05T10:54:55.421Z,56.99
2024-03-05T10:55:58.263Z,56.78
2024-03-05T10:57:01.441Z,57.36
2024-03-05T10:58:05.364Z,56.51
2024-03-05T10:59:08.141Z,56.31
2024-03-05T11:00:12.910Z,56.68
2024-03-05T11:01:23.220Z,56.92
2024-03-05T11:02:26.137Z,57.16
2024-03-05T11:03:40.106Z,56.73
2024-03-05T11:04:42.818Z,56.76
2024-03-05T11:05:51.492Z,56.62
2024-03-05T11:08:18.166Z,57.24
2024-03-05T11:09:23.048Z,56.69
2024-03-05T11:10:27.497Z,56.31
2024-03-05T11:11:30.569Z,56.57
2024-03-05T11:12:33.789Z,56.55
2024-03-05T11:13:36.857Z,56.40
2024-03-05T11:14:40.471Z,56.02
2024-03-05T11:15:43.923Z,56.43
2024-03-05T11:17:07.881Z,56.38
2024-03-05T11:18:33.446Z,56.30
2024-03-05T11:20:53.436Z,56.42
2024-03-05T11:21:56.013Z,56.01
2024-03-05T11:22:58.234Z,55.60
2024-03-05T11:24:02.926Z,55.39
2024-03-05T11:25:06.588Z,55.92
2024-03-05T11:26:20.580Z,55.65
2024-03-05T11:27:24.370Z,55.67
2024-03-05T11:28:27.973Z,54.67
2024-03-05T11:29:33.719Z,54.71
2024-03-05T11:30:36.040Z,54.60
2024-03-05T11:31:38.186Z,54.67
2024-03-05T11:32:40.590Z,55.20
2024-03-05T11:33:46.928Z,54.88
2024-03-05T11:34:52.918Z,54.66
2024-03-05T11:35:57.541Z,54.82
2024-03-05T11:37:11.218Z,55.52
2024-03-05T11:38:17.924Z,56.10
2024-03-05T11:39:20.636Z,55.68
2024-03-05T11:40:32.071Z,55.33
2024-03-05T11:41:40.605Z,53.98
2024-03-05T11:42:46.616Z,54.33
2024-03-05T11:43:49.457Z,54.77
2024-03-05T11:44:54.720Z,54.51
2024-03-05T11:45:57.437Z,53.60
2024-03-05T11:46:59.696Z,53.18
2024-03-05T11:48:04.117Z,54.25
2024-03-05T11:49:07.724Z,54.24
2024-03-05T11:50:10.880Z,53.01
2024-03-05T11:51:13.590Z,53.54
2024-03-05T11:52:18.031Z,53.81
2024-03-05T11:53:20.317Z,54.12
2024-03-05T11:54:25.028Z,52.27
2024-03-05T11:55:28.176Z,52.72
2024-03-05T11:56:31.796Z,52.42
2024-03-05T11:57:34.110Z,53.86
2024-03-05T11:58:36.690Z,53.94
2024-03-05T11:59:40.859Z,53.24
2024-03-05T12:01:45.260Z,53.13
2024-03-05T12:04:07.363Z,52.33
2024-03-05T12:05:12.467Z,52.64
2024-03-05T12:06:18.604Z,52.51
2024-03-05T12:07:21.539Z,52.82
2024-03-05T12:08:24.405Z,51.88
2024-03-05T12:09:26.565Z,51.76
2024-03-05T12:10:30.576Z,52.49
2024-03-05T12:11:32.984Z,52.84
2024-03-05T12:12:35.509Z,53.08
2024-03-05T12:13:38.247Z,52.73
2024-03-05T12:14:52.458Z,52.87
2024-03-05T12:15:54.856Z,53.10
2024-03-05T12:16:59.314Z,52.76
2024-03-05T12:18:09.056Z,53.06
2024-03-05T12:19:11.334Z,52.95
2024-03-05T12:20:20.828Z,53.20
2024-03-05T12:21:26.988Z,53.18
2024-03-05T12:22:27.411Z,53.41
2024-03-05T12:23:41.287Z,53.48
2024-03-05T12:24:33.764Z,52.84
2024-03-05T12:25:36.784Z,52.77
2024-03-05T12:26:39.307Z,52.82
2024-03-05T12:27:46.819Z,52.86
2024-03-05T12:28:49.975Z,53.21
2024-03-05T12:29:52.534Z,53.56
2024-03-05T12:30:55.884Z,53.84
2024-03-05T12:32:00.210Z,53.92
2024-03-05T12:33:02.593Z,53.56
2024-03-05T12:34:04.783Z,54.04
2024-03-05T12:35:07.783Z,54.04
2024-03-05T12:36:10.584Z,53.73
2024-03-05T12:37:13.254Z,53.57
2024-03-05T12:38:15.809Z,53.98
2024-03-05T12:39:18.870Z,53.71
2024-03-05T12:40:22.911Z,53.75
2024-03-05T12:41:26.189Z,53.93
2024-03-05T12:42:28.853Z,54.20
2024-03-05T12:43:31.644Z,53.61
2024-03-05T12:44:34.898Z,54.28
2024-03-05T12:45:38.022Z,53.94
2024-03-05T12:46:40.394Z,53.79
2024-03-05T12:47:55.430Z,53.83
2024-03-05T12:48:59.555Z,54.02
2024-03-05T12:50:04.923Z,54.19
2024-03-05T12:51:11.250Z,53.98
2024-03-05T12:52:19.773Z,53.62
2024-03-05T12:53:23.821Z,53.53
2024-03-05T12:54:26.642Z,54.10
2024-03-05T12:55:31.984Z,54.70
2024-03-05T12:56:44.524Z,55.03
2024-03-05T12:57:49.561Z,55.14
2024-03-05T12:58:53.867Z,55.26
2024-03-05T13:00:04.815Z,55.46
2024-03-05T13:01:08.503Z,55.72
2024-03-05T13:02:13.152Z,55.63
2024-03-05T13:03:18.000Z,55.45
2024-03-05T13:04:22.577Z,55.41
2024-03-05T13:05:26.632Z,55.03
2024-03-05T13:06:32.263Z,54.58
2024-03-05T13:07:35.898Z,54.18
2024-03-05T13:08:38.602Z,54.39
2024-03-05T13:09:40.833Z,54.54
2024-03-05T13:10:43.432Z,54.27
2024-03-05T13:11:47.146Z,54.58
2024-03-05T13:12:49.508Z,54.85
2024-03-05T13:13:51.570Z,54.73
2024-03-05T13:14:53.873Z,54.72
2024-03-05T13:15:56.153Z,54.56
2024-03-05T13:16:59.840Z,54.80
2024-03-05T13:18:02.575Z,55.05
2024-03-05T13:19:05.402Z,55.40
2024-03-05T13:20:08.624Z,55.64
2024-03-05T13:21:10.810Z,56.10
2024-03-05T13:22:14.350Z,56.08
2024-03-05T13:23:18.982Z,55.91
2024-03-05T13:24:21.780Z,54.90
2024-03-05T13:25:26.155Z,55.18
2024-03-05T13:26:28.861Z,55.48
2024-03-05T13:27:31.370Z,55.84
2024-03-05T13:28:33.627Z,56.17
2024-03-05T13:29:35.934Z,56.22
2024-03-05T13:30:38.133Z,56.31
2024-03-05T13:31:44.144Z,56.61
2024-03-05T13:32:48.741Z,56.42
2024-03-05T13:33:51.420Z,56.64
2024-03-05T13:34:53.503Z,56.60
2024-03-05T13:35:56.071Z,56.52
2024-03-05T13:36:58.749Z,56.32
2024-03-05T13:38:01.757Z,56.68
2024-03-05T13:39:05.926Z,56.84
2024-03-05T13:40:10.116Z,57.21
2024-03-05T13:41:12.951Z,57.05
2024-03-05T13:42:17.561Z,56.16
2024-03-05T13:43:19.701Z,56.02
2024-03-05T13:44:22.160Z,55.89
2024-03-05T13:45:24.044Z,55.87
2024-03-05T13:46:26.348Z,56.08
2024-03-05T13:47:31.513Z,55.93
2024-03-05T13:48:32.752Z,56.00
2024-03-05T13:49:35.146Z,55.99
2024-03-05T13:50:37.554Z,55.85
2024-03-05T13:51:40.272Z,56.03
2024-03-05T13:52:44.358Z,55.71
2024-03-05T13:53:46.553Z,55.36
2024-03-05T13:54:49.609Z,55.20
2024-03-05T13:57:02.386Z,54.99
2024-03-05T13:58:04.590Z,55.54
2024-03-05T13:59:06.959Z,55.52
2024-03-05T14:00:11.765Z,55.57
2024-03-05T14:01:16.751Z,55.53
2024-03-05T14:02:19.166Z,55.59
2024-03-05T14:03:21.828Z,55.76
2024-03-05T14:04:24.976Z,55.88
2024-03-05T14:05:27.007Z,55.97
2024-03-05T14:06:29.287Z,56.17
2024-03-05T14:07:33.722Z,56.62
2024-03-05T14:08:36.020Z,56.55
2024-03-05T14:09:38.372Z,56.26
2024-03-05T14:10:41.664Z,56.24
2024-03-05T14:11:43.788Z,56.51
2024-03-05T14:12:46.470Z,56.57
2024-03-05T14:13:49.237Z,56.55
2024-03-05T14:14:51.523Z,56.62
2024-03-05T14:15:54.180Z,56.66
2024-03-05T14:16:57.046Z,56.57
2024-03-05T14:18:01.537Z,56.45
2024-03-05T14:19:03.792Z,56.53
2024-03-05T14:20:08.125Z,56.74
2024-03-05T14:21:10.581Z,56.80
2024-03-05T14:22:13.757Z,56.79
2024-03-05T14:23:15.953Z,56.79
2024-03-05T14:24:18.609Z,56.94
2024-03-05T14:25:23.166Z,57.01
2024-03-05T14:26:26.038Z,57.10
2024-03-05T14:27:28.109Z,57.18
2024-03-05T14:28:31.010Z,57.23
2024-03-05T14:29:34.232Z,57.05
2024-03-05T14:30:36.409Z,57.17
2024-03-05T14:31:39.770Z,57.26
2024-03-05T14:32:43.037Z,57.35
2024-03-05T14:33:46.066Z,57.22
2024-03-05T14:34:49.462Z,57.18
2024-03-05T14:35:52.117Z,57.45
2024-03-05T14:36:54.707Z,57.48
2024-03-05T14:37:58.041Z,57.88
2024-03-05T14:39:00.441Z,58.27
2024-03-05T14:40:02.891Z,58.32
2024-03-05T14:41:05.703Z,58.86
2024-03-05T14:42:09.294Z,59.10
2024-03-05T14:43:11.925Z,59.27
2024-03-05T14:44:14.028Z,59.16
2024-03-05T14:45:17.313Z,59.36
2024-03-05T14:46:20.488Z,59.33
2024-03-05T14:47:22.642Z,59.36
2024-03-05T14:48:25.769Z,59.52
2024-03-05T14:49:27.938Z,59.72
2024-03-05T14:50:30.211Z,59.76
2024-03-05T14:51:32.881Z,59.83
2024-03-05T14:52:35.328Z,59.95
2024-03-05T14:53:37.627Z,60.21
2024-03-05T14:54:39.772Z,60.34
2024-03-05T14:55:41.939Z,60.43
2024-03-05T14:56:44.586Z,60.56
2024-03-05T14:57:46.802Z,60.66
2024-03-05T14:58:49.014Z,60.79
2024-03-05T14:59:51.656Z,60.95
2024-03-05T15:00:53.931Z,61.03
2024-03-05T15:01:56.442Z,60.98
2024-03-05T15:02:59.384Z,61.08
2024-03-05T15:04:01.741Z,61.06
2024-03-05T15:05:04.850Z,61.10
2024-03-05T15:06:07.672Z,61.25
2024-03-05T15:07:09.939Z,61.31
2024-03-05T15:08:12.217Z,61.29
2024-03-05T15:09:15.028Z,61.31
2024-03-05T15:10:17.737Z,61.32
2024-03-05T15:11:20.355Z,61.37
2024-03-05T15:12:23.017Z,61.28
2024-03-05T15:13:25.241Z,61.41
2024-03-05T15:14:27.368Z,61.43
2024-03-05T15:15:29.966Z,61.36
2024-03-05T15:16:32.713Z,61.45
2024-03-05T15:17:36.265Z,61.45
2024-03-05T15:18:38.572Z,61.41
2024-03-05T15:19:40.740Z,61.46
2024-03-05T15:20:43.389Z,61.52
2024-03-05T15:21:46.684Z,61.60
2024-03-05T15:22:49.385Z,61.62
2024-03-05T15:23:52.089Z,61.57
2024-03-05T15:24:54.277Z,61.70
2024-03-05T15:25:56.585Z,61.62
2024-03-05T15:27:05.292Z,61.67
2024-03-05T15:28:05.276Z,61.85
2024-03-05T15:29:07.791Z,61.79
2024-03-05T15:30:12.295Z,61.79
2024-03-05T15:31:15.160Z,61.94
2024-03-05T15:32:17.355Z,61.92
2024-03-05T15:33:19.464Z,62.04
2024-03-05T15:34:21.638Z,61.95
2024-03-05T15:35:24.115Z,61.93
2024-03-05T15:36:26.730Z,62.02
2024-03-05T15:37:29.409Z,62.04
2024-03-05T15:38:32.447Z,62.10
2024-03-05T15:39:35.016Z,62.03
2024-03-05T15:40:37.764Z,62.22
2024-03-05T15:41:40.073Z,62.21
2024-03-05T15:42:57.365Z,62.27
2024-03-05T15:43:59.768Z,62.17
2024-03-05T15:45:02.500Z,61.99
2024-03-05T15:46:05.517Z,62.01
2024-03-05T15:47:08.295Z,62.04
2024-03-05T15:48:10.485Z,62.30
2024-03-05T15:49:13.581Z,62.36
2024-03-05T15:50:18.482Z,62.19
2024-03-05T15:51:20.577Z,62.19
2024-03-05T15:52:22.685Z,62.30
2024-03-05T15:53:26.210Z,62.31
2024-03-05T15:54:28.357Z,62.37
2024-03-05T15:55:31.765Z,62.32
2024-03-05T15:56:34.179Z,62.32
2024-03-05T15:57:37.573Z,62.48
2024-03-05T15:58:41.079Z,62.33
2024-03-05T15:59:46.932Z,62.20
2024-03-05T16:00:49.330Z,62.20
2024-03-05T16:01:51.913Z,62.18
2024-03-05T16:04:43.113Z,62.19
2024-03-05T16:05:33.461Z,62.38
2024-03-05T16:06:34.680Z,62.36
2024-03-05T16:07:36.922Z,62.35
2024-03-05T16:08:40.125Z,62.36
2024-03-05T16:09:42.226Z,62.41
2024-03-05T16:10:48.555Z,62.30
2024-03-05T16:11:48.614Z,62.33
2024-03-05T16:12:52.600Z,62.54
2024-03-05T16:13:55.076Z,62.56
2024-03-05T16:14:57.893Z,62.52
2024-03-05T16:16:00.231Z,62.45
2024-03-05T16:17:02.568Z,62.47
2024-03-05T16:18:05.708Z,62.46
2024-03-05T16:19:08.118Z,62.44
2024-03-05T16:20:10.738Z,62.49
2024-03-05T16:21:13.373Z,62.42
2024-03-05T16:22:16.032Z,62.56
2024-03-05T16:23:18.477Z,62.60
2024-03-05T16:24:20.516Z,62.73
2024-03-05T16:25:27.659Z,62.77
2024-03-05T16:26:31.970Z,62.77
2024-03-05T16:27:35.544Z,62.88
2024-03-05T16:28:38.411Z,62.99
2024-03-05T16:29:40.674Z,62.92
2024-03-05T16:30:43.670Z,62.86
2024-03-05T16:31:45.891Z,63.06
2024-03-05T16:32:48.328Z,63.05
2024-03-05T16:33:50.990Z,63.01
2024-03-05T16:34:53.107Z,63.04
2024-03-05T16:35:55.256Z,62.84
2024-03-05T16:36:57.483Z,62.87
2024-03-05T16:38:01.261Z,62.84
2024-03-05T16:39:04.153Z,62.93
2024-03-05T16:40:09.537Z,63.02
2024-03-05T16:41:11.823Z,62.96
2024-03-05T16:42:14.579Z,63.13
2024-03-05T16:43:18.258Z,63.26
2024-03-05T16:44:20.909Z,63.17
2024-03-05T16:45:24.483Z,63.19
2024-03-05T16:46:26.904Z,62.89
2024-03-05T16:47:29.538Z,62.68
2024-03-05T16:48:31.671Z,62.65
2024-03-05T16:49:34.288Z,62.54
2024-03-05T16:50:37.691Z,62.44
2024-03-05T16:51:40.156Z,62.23
2024-03-05T16:52:47.283Z,62.07
2024-03-05T16:53:49.934Z,62.05
2024-03-05T16:54:51.990Z,61.87
2024-03-05T16:55:54.619Z,61.92
2024-03-05T16:56:57.248Z,61.92
2024-03-05T16:57:59.464Z,61.87
2024-03-05T16:59:02.334Z,61.88
2024-03-05T17:01:16.772Z,61.75
2024-03-05T17:02:19.180Z,61.88
2024-03-05T17:03:22.035Z,61.79
2024-03-05T17:04:24.316Z,61.75
2024-03-05T17:05:28.824Z,61.74
2024-03-05T17:06:31.824Z,61.66
2024-03-05T17:07:34.491Z,61.47
2024-03-05T17:08:37.118Z,61.55
2024-03-05T17:09:39.775Z,61.62
2024-03-05T17:10:42.710Z,61.66
2024-03-05T17:11:44.816Z,61.71
2024-03-05T17:12:48.313Z,61.69
2024-03-05T17:13:51.054Z,61.76
2024-03-05T17:14:53.371Z,61.68
2024-03-05T17:15:56.519Z,61.80
2024-03-05T17:16:59.099Z,61.75
2024-03-05T17:18:04.868Z,61.80
2024-03-05T17:19:06.980Z,61.90
2024-03-05T17:20:10.789Z,61.90
2024-03-05T17:21:13.061Z,61.80
2024-03-05T17:22:15.735Z,61.87
2024-03-05T17:23:22.243Z,62.09
2024-03-05T17:24:23.933Z,62.05
2024-03-05T17:25:28.551Z,62.05
2024-03-05T17:26:31.702Z,61.96
2024-03-05T17:27:34.135Z,61.93
2024-03-05T17:28:36.560Z,62.10
2024-03-05T17:29:40.450Z,61.95
2024-03-05T17:30:42.771Z,61.98
2024-03-05T17:31:46.818Z,62.13
2024-03-05T17:32:49.782Z,62.20
2024-03-05T17:33:51.929Z,62.24
2024-03-05T17:34:54.939Z,62.21
2024-03-05T17:35:59.027Z,62.28
2024-03-05T17:37:02.536Z,62.34
2024-03-05T17:38:05.284Z,62.40
2024-03-05T17:39:07.577Z,62.39
2024-03-05T17:40:11.784Z,62.53
2024-03-05T17:41:14.150Z,62.47
2024-03-05T17:42:16.688Z,62.54
2024-03-05T17:43:19.990Z,62.60
2024-03-05T17:44:22.721Z,62.60
2024-03-05T17:45:25.108Z,62.56
2024-03-05T17:46:28.520Z,62.58
2024-03-05T17:48:45.657Z,62.76
2024-03-05T17:49:48.102Z,62.79
2024-03-05T17:50:50.986Z,62.96
2024-03-05T17:51:53.765Z,62.92
2024-03-05T17:52:56.389Z,62.94
2024-03-05T17:53:59.054Z,63.07
2024-03-05T17:55:01.911Z,63.13
2024-03-05T17:56:05.033Z,63.15
2024-03-05T17:57:08.299Z,63.03
2024-03-05T17:58:11.745Z,63.00
2024-03-05T17:59:14.317Z,63.00
2024-03-05T18:00:19.449Z,63.04
2024-03-05T18:01:22.378Z,63.23
2024-03-05T18:02:24.797Z,63.10
2024-03-05T18:03:27.384Z,63.16
2024-03-05T18:04:29.606Z,62.86
2024-03-05T18:05:32.243Z,62.87
2024-03-05T18:06:35.538Z,62.81
2024-03-05T18:07:38.791Z,62.78
2024-03-05T18:08:40.911Z,62.66
2024-03-05T18:09:43.065Z,62.81
2024-03-05T18:10:46.570Z,62.86
2024-03-05T18:11:52.299Z,62.81
2024-03-05T18:12:55.241Z,62.72
2024-03-05T18:13:58.447Z,62.75
2024-03-05T18:15:01.224Z,62.67
2024-03-05T18:16:04.770Z,62.57
2024-03-05T18:17:08.964Z,62.55
2024-03-05T18:18:11.269Z,62.48
2024-03-05T18:19:14.306Z,62.57
2024-03-05T18:20:20.088Z,62.58
2024-03-05T18:21:22.717Z,62.59
2024-03-05T18:22:26.024Z,62.55
2024-03-05T18:23:29.452Z,62.67
2024-03-05T18:24:32.120Z,62.80
2024-03-05T18:25:37.361Z,62.86
2024-03-05T18:26:40.750Z,62.78
2024-03-05T18:27:54.968Z,62.67
2024-03-05T18:28:57.327Z,62.79
2024-03-05T18:29:59.469Z,62.92
2024-03-05T18:31:02.692Z,62.92
2024-03-05T18:32:05.169Z,62.81
2024-03-05T18:33:09.673Z,62.97
2024-03-05T18:34:12.472Z,63.08
2024-03-05T18:35:15.498Z,63.08
2024-03-05T18:36:18.580Z,63.04
2024-03-05T18:37:20.912Z,63.09
2024-03-05T18:38:29.014Z,62.98
2024-03-05T18:39:28.343Z,62.92
2024-03-05T18:40:31.524Z,62.97
2024-03-05T18:41:34.059Z,63.05
2024-03-05T18:42:36.185Z,63.13
2024-03-05T18:43:38.325Z,63.07
2024-03-05T18:44:40.524Z,63.19
2024-03-05T18:45:45.020Z,63.23
2024-03-05T18:46:47.315Z,63.26
2024-03-05T18:47:59.199Z,63.41
2024-03-05T18:48:55.431Z,63.25
2024-03-05T18:49:58.252Z,63.26
2024-03-05T18:51:01.082Z,63.34
2024-03-05T18:52:03.766Z,63.46
2024-03-05T18:53:07.758Z,63.29
2024-03-05T18:54:11.217Z,63.21
2024-03-05T18:55:14.533Z,63.21
2024-03-05T18:56:18.214Z,63.22
2024-03-05T18:57:20.928Z,63.29
2024-03-05T18:58:23.987Z,63.34
2024-03-05T18:59:26.306Z,63.25
2024-03-05T19:00:29.033Z,63.24
2024-03-05T19:01:31.240Z,63.30
2024-03-05T19:02:34.629Z,63.33
2024-03-05T19:03:37.547Z,63.25
2024-03-05T19:04:40.792Z,63.22
2024-03-05T19:05:43.894Z,63.16
2024-03-05T19:06:46.441Z,63.34
2024-03-05T19:07:51.479Z,63.32
2024-03-05T19:08:54.432Z,63.27
2024-03-05T19:09:56.785Z,63.26
2024-03-05T19:10:59.662Z,63.38
2024-03-05T19:12:01.967Z,63.21
2024-03-05T19:13:04.473Z,63.34
2024-03-05T19:14:06.657Z,63.38
2024-03-05T19:15:10.087Z,63.43
2024-03-05T19:16:13.691Z,63.43
2024-03-05T19:17:15.870Z,63.46
2024-03-05T19:18:18.239Z,63.61
2024-03-05T19:19:20.701Z,63.55
2024-03-05T19:20:23.259Z,63.66
2024-03-05T19:21:26.262Z,63.68
2024-03-05T19:22:28.489Z,63.86
2024-03-05T19:23:31.017Z,63.98
2024-03-05T19:24:33.224Z,64.01
2024-03-05T19:25:37.236Z,64.05
2024-03-05T19:26:39.649Z,64.08
2024-03-05T19:27:43.453Z,64.03
2024-03-05T19:28:46.356Z,64.08
2024-03-05T19:29:48.993Z,64.04
2024-03-05T19:30:51.478Z,64.14
2024-03-05T19:31:53.668Z,64.23
2024-03-05T19:32:55.684Z,64.27
2024-03-05T19:33:58.351Z,64.35
2024-03-05T19:35:02.619Z,64.38
2024-03-05T19:36:05.831Z,64.32
2024-03-05T19:37:08.451Z,64.30
2024-03-05T19:38:10.699Z,64.42